sensor_id;sensor_type;location;lat;lon;timestamp;P1;durP1;ratioP1;P2;durP2;ratioP2
28774;SDS011;15926;51.348;6.596;2022-12-07T05:04:21;25.33;;;14.00;;
28774;SDS011;15926;51.348;6.596;2022-12-07T05:06:47;21.83;;;13.10;;
28774;SDS011;15926;51.348;6.596;2022-12-07T05:09:13;23.48;;;13.65;;
28774;SDS011;15926;51.348;6.596;2022-12-07T05:11:39;20.45;;;13.25;;
28774;SDS011;15926;51.348;6.596;2022-12-07T05:16:31;22.08;;;12.30;;
28774;SDS011;15926;51.348;6.596;2022-12-07T05:18:58;21.35;;;11.90;;
28774;SDS011;15926;51.348;6.596;2022-12-07T05:21:24;20.98;;;12.55;;
28774;SDS011;15926;51.348;6.596;2022-12-07T05:23:51;26.90;;;12.73;;
28774;SDS011;15926;51.348;6.596;2022-12-07T05:26:17;19.10;;;12.43;;
28774;SDS011;15926;51.348;6.596;2022-12-07T05:28:43;19.67;;;11.98;;
28774;SDS011;15926;51.348;6.596;2022-12-07T05:31:09;31.08;;;13.25;;
28774;SDS011;15926;51.348;6.596;2022-12-07T05:33:35;17.45;;;10.88;;
28774;SDS011;15926;51.348;6.596;2022-12-07T05:36:01;21.15;;;11.25;;
28774;SDS011;15926;51.348;6.596;2022-12-07T05:38:30;17.00;;;10.77;;
28774;SDS011;15926;51.348;6.596;2022-12-07T05:40:59;19.85;;;11.95;;
28774;SDS011;15926;51.348;6.596;2022-12-07T05:43:26;20.42;;;11.02;;
28774;SDS011;15926;51.348;6.596;2022-12-07T05:45:52;20.63;;;11.23;;
28774;SDS011;15926;51.348;6.596;2022-12-07T05:48:18;23.80;;;12.32;;
28774;SDS011;15926;51.348;6.596;2022-12-07T05:50:44;18.48;;;10.65;;
28774;SDS011;15926;51.348;6.596;2022-12-07T05:53:12;18.95;;;11.00;;
28774;SDS011;15926;51.348;6.596;2022-12-07T05:55:38;20.52;;;11.00;;
28774;SDS011;15926;51.348;6.596;2022-12-07T05:58:04;17.92;;;11.05;;
28774;SDS011;15926;51.348;6.596;2022-12-07T06:00:49;19.80;;;10.82;;
28774;SDS011;15926;51.348;6.596;2022-12-07T06:03:15;19.08;;;10.05;;
28774;SDS011;15926;51.348;6.596;2022-12-07T06:05:41;21.05;;;10.07;;
28774;SDS011;15926;51.348;6.596;2022-12-07T06:08:07;22.95;;;11.00;;
28774;SDS011;15926;51.348;6.596;2022-12-07T06:10:33;19.45;;;11.18;;
28774;SDS011;15926;51.348;6.596;2022-12-07T06:12:59;19.20;;;11.18;;
28774;SDS011;15926;51.348;6.596;2022-12-07T06:15:25;17.08;;;10.57;;
28774;SDS011;15926;51.348;6.596;2022-12-07T06:17:51;17.50;;;10.63;;
28774;SDS011;15926;51.348;6.596;2022-12-07T06:20:17;16.20;;;10.85;;
28774;SDS011;15926;51.348;6.596;2022-12-07T06:22:43;21.30;;;10.85;;
28774;SDS011;15926;51.348;6.596;2022-12-07T06:25:09;18.30;;;10.95;;
28774;SDS011;15926;51.348;6.596;2022-12-07T06:27:35;22.73;;;12.13;;
28774;SDS011;15926;51.348;6.596;2022-12-07T06:30:01;29.05;;;12.50;;
28774;SDS011;15926;51.348;6.596;2022-12-07T06:32:31;22.95;;;10.93;;
28774;SDS011;15926;51.348;6.596;2022-12-07T06:34:57;18.02;;;12.27;;
28774;SDS011;15926;51.348;6.596;2022-12-07T06:37:23;19.85;;;11.50;;
28774;SDS011;15926;51.348;6.596;2022-12-07T06:39:49;20.75;;;11.45;;
28774;SDS011;15926;51.348;6.596;2022-12-07T06:42:15;22.98;;;13.27;;
28774;SDS011;15926;51.348;6.596;2022-12-07T06:44:41;25.50;;;11.18;;
28774;SDS011;15926;51.348;6.596;2022-12-07T06:47:07;15.02;;;10.25;;
28774;SDS011;15926;51.348;6.596;2022-12-07T06:49:34;22.23;;;12.88;;
28774;SDS011;15926;51.348;6.596;2022-12-07T06:52:00;24.67;;;12.77;;
28774;SDS011;15926;51.348;6.596;2022-12-07T06:54:26;20.92;;;12.63;;
28774;SDS011;15926;51.348;6.596;2022-12-07T06:56:55;24.50;;;13.57;;
28774;SDS011;15926;51.348;6.596;2022-12-07T06:59:21;20.92;;;12.35;;
28774;SDS011;15926;51.348;6.596;2022-12-07T07:01:47;26.65;;;12.02;;
28774;SDS011;15926;51.348;6.596;2022-12-07T07:04:13;20.13;;;12.20;;
28774;SDS011;15926;51.348;6.596;2022-12-07T07:06:39;19.80;;;12.10;;
28774;SDS011;15926;51.348;6.596;2022-12-07T07:09:05;25.25;;;13.07;;
28774;SDS011;15926;51.348;6.596;2022-12-07T07:11:31;21.40;;;12.38;;
28774;SDS011;15926;51.348;6.596;2022-12-07T07:13:57;19.33;;;12.55;;
28774;SDS011;15926;51.348;6.596;2022-12-07T07:16:27;26.90;;;13.10;;
28774;SDS011;15926;51.348;6.596;2022-12-07T07:18:53;23.83;;;12.75;;
28774;SDS011;15926;51.348;6.596;2022-12-07T07:21:19;22.27;;;12.05;;
28774;SDS011;15926;51.348;6.596;2022-12-07T07:23:45;17.05;;;11.00;;
28774;SDS011;15926;51.348;6.596;2022-12-07T07:26:11;18.00;;;11.48;;
28774;SDS011;15926;51.348;6.596;2022-12-07T07:28:37;23.67;;;12.07;;
28774;SDS011;15926;51.348;6.596;2022-12-07T07:31:03;25.92;;;11.60;;
28774;SDS011;15926;51.348;6.596;2022-12-07T07:33:29;18.52;;;11.65;;
28774;SDS011;15926;51.348;6.596;2022-12-07T07:35:55;19.17;;;11.52;;
28774;SDS011;15926;51.348;6.596;2022-12-07T07:38:21;19.98;;;10.57;;
28774;SDS011;15926;51.348;6.596;2022-12-07T07:40:47;17.80;;;10.85;;
28774;SDS011;15926;51.348;6.596;2022-12-07T07:43:13;20.10;;;11.65;;
28774;SDS011;15926;51.348;6.596;2022-12-07T07:45:39;19.23;;;10.80;;
28774;SDS011;15926;51.348;6.596;2022-12-07T07:48:05;19.98;;;10.35;;
28774;SDS011;15926;51.348;6.596;2022-12-07T07:50:31;19.05;;;10.32;;
28774;SDS011;15926;51.348;6.596;2022-12-07T07:52:57;15.70;;;9.43;;
28774;SDS011;15926;51.348;6.596;2022-12-07T07:55:23;17.27;;;10.60;;
28774;SDS011;15926;51.348;6.596;2022-12-07T07:57:49;17.90;;;10.15;;
28774;SDS011;15926;51.348;6.596;2022-12-07T08:00:16;20.42;;;10.52;;
28774;SDS011;15926;51.348;6.596;2022-12-07T08:02:42;18.70;;;10.15;;
28774;SDS011;15926;51.348;6.596;2022-12-07T08:05:09;18.70;;;9.93;;
28774;SDS011;15926;51.348;6.596;2022-12-07T08:07:35;15.65;;;10.05;;
28774;SDS011;15926;51.348;6.596;2022-12-07T08:10:01;17.15;;;9.45;;
28774;SDS011;15926;51.348;6.596;2022-12-07T08:12:27;15.93;;;9.82;;
28774;SDS011;15926;51.348;6.596;2022-12-07T08:14:53;14.00;;;9.70;;
28774;SDS011;15926;51.348;6.596;2022-12-07T08:17:19;18.70;;;9.73;;
28774;SDS011;15926;51.348;6.596;2022-12-07T08:19:46;14.73;;;9.75;;
28774;SDS011;15926;51.348;6.596;2022-12-07T08:22:11;15.55;;;10.30;;
28774;SDS011;15926;51.348;6.596;2022-12-07T08:24:37;18.27;;;10.23;;
28774;SDS011;15926;51.348;6.596;2022-12-07T08:27:03;15.65;;;9.90;;
28774;SDS011;15926;51.348;6.596;2022-12-07T08:29:30;20.15;;;9.90;;
28774;SDS011;15926;51.348;6.596;2022-12-07T08:31:56;18.73;;;11.32;;
28774;SDS011;15926;51.348;6.596;2022-12-07T08:34:22;16.85;;;10.00;;
28774;SDS011;15926;51.348;6.596;2022-12-07T08:36:48;19.35;;;10.85;;
28774;SDS011;15926;51.348;6.596;2022-12-07T08:39:14;16.02;;;9.73;;
28774;SDS011;15926;51.348;6.596;2022-12-07T08:41:39;15.55;;;10.18;;
28774;SDS011;15926;51.348;6.596;2022-12-07T08:44:05;20.25;;;11.15;;
28774;SDS011;15926;51.348;6.596;2022-12-07T08:46:38;13.35;;;9.55;;
28774;SDS011;15926;51.348;6.596;2022-12-07T08:49:08;12.80;;;9.57;;
28774;SDS011;15926;51.348;6.596;2022-12-07T08:54:02;19.25;;;10.15;;
28774;SDS011;15926;51.348;6.596;2022-12-07T08:56:29;18.30;;;8.90;;
28774;SDS011;15926;51.348;6.596;2022-12-07T08:58:55;21.77;;;10.20;;
28774;SDS011;15926;51.348;6.596;2022-12-07T09:01:22;14.65;;;8.45;;
28774;SDS011;15926;51.348;6.596;2022-12-07T09:03:48;16.70;;;9.95;;
28774;SDS011;15926;51.348;6.596;2022-12-07T09:06:14;18.40;;;9.48;;
28774;SDS011;15926;51.348;6.596;2022-12-07T09:08:42;17.77;;;9.25;;
28774;SDS011;15926;51.348;6.596;2022-12-07T09:11:09;15.05;;;9.30;;
28774;SDS011;15926;51.348;6.596;2022-12-07T09:13:35;14.57;;;8.10;;
28774;SDS011;15926;51.348;6.596;2022-12-07T09:16:01;13.45;;;9.55;;
28774;SDS011;15926;51.348;6.596;2022-12-07T09:18:27;17.20;;;8.85;;
28774;SDS011;15926;51.348;6.596;2022-12-07T09:20:53;16.52;;;8.50;;
28774;SDS011;15926;51.348;6.596;2022-12-07T09:23:19;18.08;;;8.88;;
28774;SDS011;15926;51.348;6.596;2022-12-07T09:25:45;14.25;;;9.10;;
28774;SDS011;15926;51.348;6.596;2022-12-07T09:28:11;13.75;;;8.10;;
28774;SDS011;15926;51.348;6.596;2022-12-07T09:30:37;14.23;;;8.13;;
28774;SDS011;15926;51.348;6.596;2022-12-07T09:33:03;9.52;;;7.75;;
28774;SDS011;15926;51.348;6.596;2022-12-07T09:35:29;10.50;;;8.60;;
28774;SDS011;15926;51.348;6.596;2022-12-07T09:37:55;13.77;;;8.80;;
28774;SDS011;15926;51.348;6.596;2022-12-07T09:40:22;13.13;;;8.38;;
28774;SDS011;15926;51.348;6.596;2022-12-07T09:42:53;11.32;;;8.10;;
28774;SDS011;15926;51.348;6.596;2022-12-07T09:45:53;16.75;;;10.13;;
28774;SDS011;15926;51.348;6.596;2022-12-07T09:48:30;16.50;;;10.90;;
28774;SDS011;15926;51.348;6.596;2022-12-07T09:50:57;17.35;;;11.70;;
28774;SDS011;15926;51.348;6.596;2022-12-07T09:53:30;24.13;;;12.02;;
28774;SDS011;15926;51.348;6.596;2022-12-07T09:55:59;23.52;;;14.00;;
28774;SDS011;15926;51.348;6.596;2022-12-07T09:58:26;22.08;;;15.18;;
28774;SDS011;15926;51.348;6.596;2022-12-07T10:00:53;25.05;;;14.05;;
28774;SDS011;15926;51.348;6.596;2022-12-07T10:03:21;20.27;;;13.32;;
28774;SDS011;15926;51.348;6.596;2022-12-07T10:05:48;19.00;;;11.82;;
28774;SDS011;15926;51.348;6.596;2022-12-07T10:08:15;19.63;;;12.13;;
28774;SDS011;15926;51.348;6.596;2022-12-07T10:10:42;12.35;;;9.48;;
28774;SDS011;15926;51.348;6.596;2022-12-07T10:13:09;15.00;;;9.25;;
28774;SDS011;15926;51.348;6.596;2022-12-07T10:15:46;9.95;;;7.07;;
28774;SDS011;15926;51.348;6.596;2022-12-07T10:23:58;10.25;;;6.10;;
28774;SDS011;15926;51.348;6.596;2022-12-07T10:26:35;8.07;;;5.70;;
28774;SDS011;15926;51.348;6.596;2022-12-07T10:29:24;9.55;;;5.82;;
28774;SDS011;15926;51.348;6.596;2022-12-07T10:31:51;10.45;;;5.68;;
28774;SDS011;15926;51.348;6.596;2022-12-07T10:34:26;9.68;;;5.70;;
28774;SDS011;15926;51.348;6.596;2022-12-07T10:36:54;7.82;;;4.93;;
28774;SDS011;15926;51.348;6.596;2022-12-07T10:39:39;11.00;;;6.28;;
28774;SDS011;15926;51.348;6.596;2022-12-07T10:42:08;8.25;;;4.97;;
28774;SDS011;15926;51.348;6.596;2022-12-07T10:44:41;8.18;;;5.05;;
28774;SDS011;15926;51.348;6.596;2022-12-07T10:57:19;4.85;;;4.30;;
28774;SDS011;15926;51.348;6.596;2022-12-07T11:05:05;8.70;;;5.45;;
28774;SDS011;15926;51.348;6.596;2022-12-07T11:13:14;8.27;;;4.30;;
28774;SDS011;15926;51.348;6.596;2022-12-07T11:20:53;6.00;;;3.30;;
28774;SDS011;15926;51.348;6.596;2022-12-07T11:26:04;11.55;;;3.78;;
28774;SDS011;15926;51.348;6.596;2022-12-07T11:31:22;6.95;;;3.38;;
28774;SDS011;15926;51.348;6.596;2022-12-07T11:33:56;7.07;;;3.20;;
28774;SDS011;15926;51.348;6.596;2022-12-07T11:38:57;6.60;;;2.70;;
28774;SDS011;15926;51.348;6.596;2022-12-07T11:41:24;5.15;;;2.55;;
28774;SDS011;15926;51.348;6.596;2022-12-07T11:46:18;5.72;;;2.13;;
28774;SDS011;15926;51.348;6.596;2022-12-07T11:48:47;4.07;;;2.20;;
28774;SDS011;15926;51.348;6.596;2022-12-07T11:51:15;5.28;;;2.72;;
28774;SDS011;15926;51.348;6.596;2022-12-07T11:56:17;6.40;;;2.58;;
28774;SDS011;15926;51.348;6.596;2022-12-07T12:03:48;3.78;;;2.30;;
28774;SDS011;15926;51.348;6.596;2022-12-07T12:06:16;4.80;;;2.13;;
28774;SDS011;15926;51.348;6.596;2022-12-07T12:08:43;11.77;;;2.22;;
28774;SDS011;15926;51.348;6.596;2022-12-07T12:13:51;5.97;;;2.67;;
28774;SDS011;15926;51.348;6.596;2022-12-07T12:16:35;3.78;;;2.33;;
28774;SDS011;15926;51.348;6.596;2022-12-07T12:21:41;6.82;;;2.42;;
28774;SDS011;15926;51.348;6.596;2022-12-07T12:24:12;3.10;;;2.17;;
28774;SDS011;15926;51.348;6.596;2022-12-07T12:26:39;3.70;;;2.33;;
28774;SDS011;15926;51.348;6.596;2022-12-07T12:29:27;7.53;;;2.50;;
28774;SDS011;15926;51.348;6.596;2022-12-07T12:36:57;5.05;;;2.30;;
28774;SDS011;15926;51.348;6.596;2022-12-07T12:39:23;7.20;;;3.05;;
28774;SDS011;15926;51.348;6.596;2022-12-07T12:41:51;4.13;;;2.42;;
28774;SDS011;15926;51.348;6.596;2022-12-07T12:51:40;2.95;;;2.00;;
28774;SDS011;15926;51.348;6.596;2022-12-07T12:54:10;4.30;;;1.92;;
28774;SDS011;15926;51.348;6.596;2022-12-07T13:01:50;5.63;;;2.30;;
28774;SDS011;15926;51.348;6.596;2022-12-07T13:04:27;5.13;;;2.03;;
28774;SDS011;15926;51.348;6.596;2022-12-07T13:06:54;4.90;;;1.75;;
28774;SDS011;15926;51.348;6.596;2022-12-07T13:09:24;8.20;;;2.30;;
28774;SDS011;15926;51.348;6.596;2022-12-07T13:11:59;4.63;;;1.63;;
28774;SDS011;15926;51.348;6.596;2022-12-07T13:17:01;2.25;;;1.58;;
28774;SDS011;15926;51.348;6.596;2022-12-07T13:22:34;3.88;;;1.80;;
28774;SDS011;15926;51.348;6.596;2022-12-07T13:25:11;3.60;;;1.50;;
28774;SDS011;15926;51.348;6.596;2022-12-07T13:27:39;5.07;;;1.30;;
28774;SDS011;15926;51.348;6.596;2022-12-07T13:30:15;4.55;;;1.30;;
28774;SDS011;15926;51.348;6.596;2022-12-07T13:32:41;8.23;;;1.48;;
28774;SDS011;15926;51.348;6.596;2022-12-07T13:37:53;4.35;;;0.90;;
28774;SDS011;15926;51.348;6.596;2022-12-07T13:40:19;2.50;;;0.80;;
28774;SDS011;15926;51.348;6.596;2022-12-07T13:42:46;2.88;;;0.77;;
28774;SDS011;15926;51.348;6.596;2022-12-07T13:48:08;3.03;;;0.85;;
28774;SDS011;15926;51.348;6.596;2022-12-07T13:50:36;2.53;;;1.73;;
28774;SDS011;15926;51.348;6.596;2022-12-07T13:53:07;5.75;;;1.98;;
28774;SDS011;15926;51.348;6.596;2022-12-07T13:55:33;4.85;;;1.40;;
28774;SDS011;15926;51.348;6.596;2022-12-07T13:58:00;4.55;;;1.63;;
28774;SDS011;15926;51.348;6.596;2022-12-07T14:00:26;3.67;;;1.77;;
28774;SDS011;15926;51.348;6.596;2022-12-07T14:02:57;5.32;;;1.67;;
28774;SDS011;15926;51.348;6.596;2022-12-07T14:05:29;3.70;;;1.52;;
28774;SDS011;15926;51.348;6.596;2022-12-07T14:10:41;6.97;;;2.35;;
28774;SDS011;15926;51.348;6.596;2022-12-07T14:13:33;7.40;;;2.65;;
28774;SDS011;15926;51.348;6.596;2022-12-07T14:16:00;6.80;;;2.30;;
28774;SDS011;15926;51.348;6.596;2022-12-07T14:18:27;6.03;;;2.45;;
28774;SDS011;15926;51.348;6.596;2022-12-07T14:26:37;5.90;;;2.17;;
28774;SDS011;15926;51.348;6.596;2022-12-07T14:31:50;6.28;;;2.28;;
28774;SDS011;15926;51.348;6.596;2022-12-07T14:34:19;10.80;;;2.50;;
28774;SDS011;15926;51.348;6.596;2022-12-07T14:36:45;6.43;;;2.28;;
28774;SDS011;15926;51.348;6.596;2022-12-07T14:39:11;3.95;;;2.40;;
28774;SDS011;15926;51.348;6.596;2022-12-07T14:41:37;4.22;;;2.30;;
28774;SDS011;15926;51.348;6.596;2022-12-07T14:44:21;4.28;;;2.60;;
28774;SDS011;15926;51.348;6.596;2022-12-07T14:46:48;4.68;;;2.67;;
28774;SDS011;15926;51.348;6.596;2022-12-07T14:49:14;10.13;;;2.88;;
28774;SDS011;15926;51.348;6.596;2022-12-07T14:51:40;6.35;;;2.70;;
28774;SDS011;15926;51.348;6.596;2022-12-07T14:54:09;5.97;;;3.03;;
28774;SDS011;15926;51.348;6.596;2022-12-07T14:56:39;3.30;;;2.83;;
28774;SDS011;15926;51.348;6.596;2022-12-07T14:59:05;6.22;;;3.22;;
28774;SDS011;15926;51.348;6.596;2022-12-07T15:01:31;7.35;;;3.00;;
28774;SDS011;15926;51.348;6.596;2022-12-07T15:03:57;7.50;;;2.92;;
28774;SDS011;15926;51.348;6.596;2022-12-07T15:06:23;5.05;;;2.50;;
28774;SDS011;15926;51.348;6.596;2022-12-07T15:08:49;9.82;;;2.47;;
28774;SDS011;15926;51.348;6.596;2022-12-07T15:11:16;6.22;;;2.63;;
28774;SDS011;15926;51.348;6.596;2022-12-07T15:13:42;5.15;;;2.15;;
28774;SDS011;15926;51.348;6.596;2022-12-07T15:16:27;4.78;;;2.13;;
28774;SDS011;15926;51.348;6.596;2022-12-07T15:18:53;7.43;;;2.20;;
28774;SDS011;15926;51.348;6.596;2022-12-07T15:21:19;6.32;;;2.67;;
28774;SDS011;15926;51.348;6.596;2022-12-07T15:23:46;2.65;;;2.05;;
28774;SDS011;15926;51.348;6.596;2022-12-07T15:26:12;2.35;;;1.92;;
28774;SDS011;15926;51.348;6.596;2022-12-07T15:28:38;3.28;;;2.17;;
28774;SDS011;15926;51.348;6.596;2022-12-07T15:31:10;3.50;;;1.83;;
28774;SDS011;15926;51.348;6.596;2022-12-07T15:33:36;5.75;;;2.30;;
28774;SDS011;15926;51.348;6.596;2022-12-07T15:36:02;3.72;;;2.00;;
28774;SDS011;15926;51.348;6.596;2022-12-07T15:38:28;3.15;;;1.90;;
28774;SDS011;15926;51.348;6.596;2022-12-07T15:40:55;3.83;;;2.22;;
28774;SDS011;15926;51.348;6.596;2022-12-07T15:43:21;2.35;;;1.77;;
28774;SDS011;15926;51.348;6.596;2022-12-07T15:46:06;5.05;;;1.83;;
28774;SDS011;15926;51.348;6.596;2022-12-07T15:48:32;7.38;;;1.90;;
28774;SDS011;15926;51.348;6.596;2022-12-07T15:51:05;6.03;;;3.45;;
28774;SDS011;15926;51.348;6.596;2022-12-07T15:53:31;7.13;;;3.22;;
28774;SDS011;15926;51.348;6.596;2022-12-07T15:55:58;2.50;;;2.20;;
28774;SDS011;15926;51.348;6.596;2022-12-07T15:58:24;4.47;;;2.50;;
28774;SDS011;15926;51.348;6.596;2022-12-07T16:00:50;5.45;;;2.15;;
28774;SDS011;15926;51.348;6.596;2022-12-07T16:03:16;8.20;;;2.10;;
28774;SDS011;15926;51.348;6.596;2022-12-07T16:05:48;8.13;;;3.15;;
28774;SDS011;15926;51.348;6.596;2022-12-07T16:08:14;14.52;;;4.40;;
28774;SDS011;15926;51.348;6.596;2022-12-07T16:10:40;3.95;;;2.88;;
28774;SDS011;15926;51.348;6.596;2022-12-07T16:13:08;3.67;;;2.25;;
28774;SDS011;15926;51.348;6.596;2022-12-07T16:15:37;5.03;;;3.20;;
28774;SDS011;15926;51.348;6.596;2022-12-07T16:18:03;7.20;;;2.50;;
28774;SDS011;15926;51.348;6.596;2022-12-07T16:20:29;6.78;;;2.65;;
28774;SDS011;15926;51.348;6.596;2022-12-07T16:22:55;7.00;;;3.25;;
28774;SDS011;15926;51.348;6.596;2022-12-07T16:25:21;5.50;;;2.97;;
28774;SDS011;15926;51.348;6.596;2022-12-07T16:27:47;9.52;;;3.03;;
28774;SDS011;15926;51.348;6.596;2022-12-07T16:30:14;6.35;;;2.70;;
28774;SDS011;15926;51.348;6.596;2022-12-07T16:32:41;7.03;;;2.63;;
28774;SDS011;15926;51.348;6.596;2022-12-07T16:35:08;4.20;;;2.75;;
28774;SDS011;15926;51.348;6.596;2022-12-07T16:37:34;7.32;;;2.63;;
28774;SDS011;15926;51.348;6.596;2022-12-07T16:40:00;4.63;;;2.70;;
28774;SDS011;15926;51.348;6.596;2022-12-07T16:42:26;5.55;;;3.10;;
28774;SDS011;15926;51.348;6.596;2022-12-07T16:44:52;6.32;;;3.45;;
28774;SDS011;15926;51.348;6.596;2022-12-07T16:47:18;7.78;;;3.60;;
28774;SDS011;15926;51.348;6.596;2022-12-07T16:49:44;4.25;;;2.97;;
28774;SDS011;15926;51.348;6.596;2022-12-07T16:52:10;10.35;;;3.25;;
28774;SDS011;15926;51.348;6.596;2022-12-07T16:54:36;6.35;;;3.60;;
28774;SDS011;15926;51.348;6.596;2022-12-07T16:57:02;5.75;;;3.28;;
28774;SDS011;15926;51.348;6.596;2022-12-07T16:59:28;9.85;;;4.20;;
28774;SDS011;15926;51.348;6.596;2022-12-07T17:01:54;8.52;;;3.63;;
28774;SDS011;15926;51.348;6.596;2022-12-07T17:04:20;7.38;;;3.58;;
28774;SDS011;15926;51.348;6.596;2022-12-07T17:06:46;4.60;;;3.45;;
28774;SDS011;15926;51.348;6.596;2022-12-07T17:09:12;6.35;;;3.67;;
28774;SDS011;15926;51.348;6.596;2022-12-07T17:11:38;9.48;;;3.70;;
28774;SDS011;15926;51.348;6.596;2022-12-07T17:14:04;5.82;;;3.65;;
28774;SDS011;15926;51.348;6.596;2022-12-07T17:16:48;10.13;;;4.05;;
28774;SDS011;15926;51.348;6.596;2022-12-07T17:19:15;9.75;;;3.97;;
28774;SDS011;15926;51.348;6.596;2022-12-07T17:21:42;5.50;;;3.50;;
28774;SDS011;15926;51.348;6.596;2022-12-07T17:24:09;9.88;;;4.20;;
28774;SDS011;15926;51.348;6.596;2022-12-07T17:26:35;6.80;;;3.90;;
28774;SDS011;15926;51.348;6.596;2022-12-07T17:29:03;5.82;;;4.10;;
28774;SDS011;15926;51.348;6.596;2022-12-07T17:31:29;6.30;;;3.85;;
28774;SDS011;15926;51.348;6.596;2022-12-07T17:33:55;8.40;;;4.10;;
28774;SDS011;15926;51.348;6.596;2022-12-07T17:36:22;4.05;;;3.70;;
28774;SDS011;15926;51.348;6.596;2022-12-07T17:38:48;5.25;;;2.95;;
28774;SDS011;15926;51.348;6.596;2022-12-07T17:41:16;6.43;;;3.67;;
28774;SDS011;15926;51.348;6.596;2022-12-07T17:44:01;5.00;;;3.45;;
28774;SDS011;15926;51.348;6.596;2022-12-07T17:46:28;5.50;;;3.45;;
28774;SDS011;15926;51.348;6.596;2022-12-07T17:48:54;4.68;;;2.58;;
28774;SDS011;15926;51.348;6.596;2022-12-07T17:51:20;5.15;;;3.47;;
28774;SDS011;15926;51.348;6.596;2022-12-07T17:54:04;3.08;;;2.75;;
28774;SDS011;15926;51.348;6.596;2022-12-07T17:56:30;3.75;;;3.45;;
28774;SDS011;15926;51.348;6.596;2022-12-07T17:58:56;4.30;;;3.05;;
28774;SDS011;15926;51.348;6.596;2022-12-07T18:01:22;3.80;;;3.08;;
28774;SDS011;15926;51.348;6.596;2022-12-07T18:03:49;6.68;;;3.53;;
28774;SDS011;15926;51.348;6.596;2022-12-07T18:06:15;4.20;;;3.28;;
28774;SDS011;15926;51.348;6.596;2022-12-07T18:08:41;4.80;;;3.25;;
28774;SDS011;15926;51.348;6.596;2022-12-07T18:11:07;5.15;;;4.53;;
28774;SDS011;15926;51.348;6.596;2022-12-07T18:13:33;9.13;;;4.68;;
28774;SDS011;15926;51.348;6.596;2022-12-07T18:16:07;7.07;;;4.13;;
28774;SDS011;15926;51.348;6.596;2022-12-07T18:18:34;6.70;;;3.95;;
28774;SDS011;15926;51.348;6.596;2022-12-07T18:21:03;9.02;;;4.78;;
28774;SDS011;15926;51.348;6.596;2022-12-07T18:23:31;6.28;;;5.25;;
28774;SDS011;15926;51.348;6.596;2022-12-07T18:25:57;5.75;;;4.95;;
28774;SDS011;15926;51.348;6.596;2022-12-07T18:28:23;11.18;;;6.15;;
28774;SDS011;15926;51.348;6.596;2022-12-07T18:30:49;9.35;;;6.55;;
28774;SDS011;15926;51.348;6.596;2022-12-07T18:33:19;9.10;;;6.65;;
28774;SDS011;15926;51.348;6.596;2022-12-07T18:35:45;7.32;;;6.45;;
28774;SDS011;15926;51.348;6.596;2022-12-07T18:38:15;9.27;;;6.38;;
28774;SDS011;15926;51.348;6.596;2022-12-07T18:40:42;11.05;;;7.20;;
28774;SDS011;15926;51.348;6.596;2022-12-07T18:43:08;11.93;;;7.55;;
28774;SDS011;15926;51.348;6.596;2022-12-07T18:45:35;16.30;;;7.25;;
28774;SDS011;15926;51.348;6.596;2022-12-07T18:48:01;14.00;;;7.97;;
28774;SDS011;15926;51.348;6.596;2022-12-07T18:50:27;16.30;;;8.50;;
28774;SDS011;15926;51.348;6.596;2022-12-07T18:52:56;12.10;;;8.75;;
28774;SDS011;15926;51.348;6.596;2022-12-07T18:55:23;17.52;;;8.63;;
28774;SDS011;15926;51.348;6.596;2022-12-07T18:57:49;13.73;;;9.10;;
28774;SDS011;15926;51.348;6.596;2022-12-07T19:00:16;15.60;;;9.02;;
28774;SDS011;15926;51.348;6.596;2022-12-07T19:02:42;12.60;;;9.00;;
28774;SDS011;15926;51.348;6.596;2022-12-07T19:05:08;18.02;;;10.15;;
28774;SDS011;15926;51.348;6.596;2022-12-07T19:07:34;16.45;;;9.68;;
28774;SDS011;15926;51.348;6.596;2022-12-07T19:10:00;13.57;;;9.07;;
28774;SDS011;15926;51.348;6.596;2022-12-07T19:12:26;15.55;;;9.50;;
28774;SDS011;15926;51.348;6.596;2022-12-07T19:14:52;16.35;;;10.10;;
28774;SDS011;15926;51.348;6.596;2022-12-07T19:17:19;13.45;;;9.73;;
28774;SDS011;15926;51.348;6.596;2022-12-07T19:19:46;17.50;;;9.82;;
28774;SDS011;15926;51.348;6.596;2022-12-07T19:22:13;21.20;;;10.18;;
28774;SDS011;15926;51.348;6.596;2022-12-07T19:24:40;15.38;;;10.05;;
28774;SDS011;15926;51.348;6.596;2022-12-07T19:27:07;14.85;;;9.52;;
28774;SDS011;15926;51.348;6.596;2022-12-07T19:29:34;16.17;;;9.40;;
28774;SDS011;15926;51.348;6.596;2022-12-07T19:32:00;16.88;;;9.77;;
28774;SDS011;15926;51.348;6.596;2022-12-07T19:34:27;16.45;;;10.27;;
28774;SDS011;15926;51.348;6.596;2022-12-07T19:36:53;20.33;;;11.07;;
28774;SDS011;15926;51.348;6.596;2022-12-07T19:39:19;20.17;;;11.98;;
28774;SDS011;15926;51.348;6.596;2022-12-07T19:41:45;18.65;;;12.05;;
28774;SDS011;15926;51.348;6.596;2022-12-07T19:44:21;21.52;;;12.32;;
28774;SDS011;15926;51.348;6.596;2022-12-07T19:46:49;21.10;;;12.30;;
28774;SDS011;15926;51.348;6.596;2022-12-07T19:49:16;22.30;;;12.55;;
28774;SDS011;15926;51.348;6.596;2022-12-07T19:51:43;26.67;;;13.15;;
28774;SDS011;15926;51.348;6.596;2022-12-07T19:54:10;25.40;;;14.35;;
28774;SDS011;15926;51.348;6.596;2022-12-07T19:56:38;23.92;;;14.60;;
28774;SDS011;15926;51.348;6.596;2022-12-07T19:59:04;28.17;;;14.68;;
28774;SDS011;15926;51.348;6.596;2022-12-07T20:01:31;26.95;;;13.85;;
28774;SDS011;15926;51.348;6.596;2022-12-07T20:03:58;23.15;;;13.60;;
28774;SDS011;15926;51.348;6.596;2022-12-07T20:06:24;29.30;;;15.90;;
28774;SDS011;15926;51.348;6.596;2022-12-07T20:08:50;25.40;;;15.02;;
28774;SDS011;15926;51.348;6.596;2022-12-07T20:11:17;26.80;;;13.70;;
28774;SDS011;15926;51.348;6.596;2022-12-07T20:14:04;27.35;;;14.15;;
28774;SDS011;15926;51.348;6.596;2022-12-07T20:16:31;29.00;;;14.70;;
28774;SDS011;15926;51.348;6.596;2022-12-07T20:18:57;22.77;;;14.80;;
28774;SDS011;15926;51.348;6.596;2022-12-07T20:21:24;24.30;;;14.30;;
28774;SDS011;15926;51.348;6.596;2022-12-07T20:23:50;26.63;;;15.93;;
28774;SDS011;15926;51.348;6.596;2022-12-07T20:26:16;27.67;;;13.95;;
28774;SDS011;15926;51.348;6.596;2022-12-07T20:28:43;23.38;;;13.75;;
28774;SDS011;15926;51.348;6.596;2022-12-07T20:31:11;27.00;;;14.80;;
28774;SDS011;15926;51.348;6.596;2022-12-07T20:33:37;29.10;;;16.15;;
28774;SDS011;15926;51.348;6.596;2022-12-07T20:36:03;31.40;;;15.20;;
28774;SDS011;15926;51.348;6.596;2022-12-07T20:38:30;26.70;;;14.30;;
28774;SDS011;15926;51.348;6.596;2022-12-07T20:41:01;24.83;;;13.57;;
28774;SDS011;15926;51.348;6.596;2022-12-07T20:43:27;27.25;;;14.35;;
28774;SDS011;15926;51.348;6.596;2022-12-07T20:45:54;29.08;;;14.25;;
28774;SDS011;15926;51.348;6.596;2022-12-07T20:48:20;26.30;;;13.80;;
28774;SDS011;15926;51.348;6.596;2022-12-07T20:50:46;23.60;;;13.07;;
28774;SDS011;15926;51.348;6.596;2022-12-07T20:53:12;26.25;;;13.48;;
28774;SDS011;15926;51.348;6.596;2022-12-07T20:55:38;29.05;;;12.80;;
28774;SDS011;15926;51.348;6.596;2022-12-07T20:58:04;24.80;;;12.48;;
28774;SDS011;15926;51.348;6.596;2022-12-07T21:00:31;25.35;;;13.07;;
28774;SDS011;15926;51.348;6.596;2022-12-07T21:02:57;21.73;;;12.52;;
28774;SDS011;15926;51.348;6.596;2022-12-07T21:05:23;22.45;;;13.40;;
28774;SDS011;15926;51.348;6.596;2022-12-07T21:07:50;25.67;;;13.13;;
28774;SDS011;15926;51.348;6.596;2022-12-07T21:10:16;23.73;;;12.95;;
28774;SDS011;15926;51.348;6.596;2022-12-07T21:12:42;24.52;;;13.70;;
28774;SDS011;15926;51.348;6.596;2022-12-07T21:15:08;23.08;;;12.18;;
28774;SDS011;15926;51.348;6.596;2022-12-07T21:17:34;27.35;;;13.55;;
28774;SDS011;15926;51.348;6.596;2022-12-07T21:20:00;22.83;;;13.00;;
28774;SDS011;15926;51.348;6.596;2022-12-07T21:22:26;22.50;;;12.68;;